Time;durP1;ratioP1;P1;durP2;ratioP2;P2;SDS_P1;SDS_P2;PMS_P1;PMS_P2;Temp;Humidity;BMP_temperature;BMP_pressure;BME280_temperature;BME280_humidity;BME280_pressure;Samples;Min_cycle;Max_cycle;Signal;HPM_P1;HPM_P2
2022/05/02 00:01:22;;;;;;;11.03;9.87;;;;;;;8.54;88.81;97857.28;6205053;28;20290;-84
2022/05/02 00:04:24;;;;;;;11.97;10.43;;;;;;;8.55;88.53;97850.22;6195827;28;20285;-84
2022/05/02 00:07:27;;;;;;;10.77;9.77;;;;;;;8.55;89.23;97840.53;6196128;28;20232;-84
2022/05/02 00:10:29;;;;;;;12.70;10.43;;;;;;;8.54;88.78;97838.84;6195459;28;20227;-84
2022/05/02 00:13:32;;;;;;;10.20;9.20;;;;;;;8.54;89.00;97833.59;6196348;28;20277;-85
2022/05/02 00:16:36;;;;;;;11.47;9.37;;;;;;;8.56;89.19;97825.59;6195645;28;20325;-84
2022/05/02 00:19:38;;;;;;;8.97;8.07;;;;;;;8.59;88.94;97823.59;6204475;28;20246;-85
2022/05/02 00:22:40;;;;;;;9.27;8.37;;;;;;;8.65;89.50;97812.66;6204833;28;20287;-85
2022/05/02 00:25:43;;;;;;;9.73;8.73;;;;;;;8.68;89.30;97811.59;6224372;28;20258;-84
2022/05/02 00:28:45;;;;;;;9.83;8.63;;;;;;;8.68;89.21;97808.97;6214364;28;20227;-84
2022/05/02 00:31:47;;;;;;;10.13;9.07;;;;;;;8.68;89.11;97807.19;6212216;28;20247;-84
2022/05/02 00:34:49;;;;;;;9.10;8.20;;;;;;;8.68;89.54;97799.28;6195714;28;20698;-84
2022/05/02 00:37:52;;;;;;;8.13;7.33;;;;;;;8.67;89.43;97800.22;6211625;28;20587;-85
2022/05/02 00:40:54;;;;;;;10.77;9.70;;;;;;;8.63;89.53;97803.19;6196066;28;20293;-84
2022/05/02 00:43:57;;;;;;;9.13;8.23;;;;;;;8.62;89.21;97798.84;6195197;28;20239;-85
2022/05/02 00:46:59;;;;;;;10.50;9.50;;;;;;;8.61;89.79;97798.00;6185375;28;20232;-84
2022/05/02 00:50:06;;;;;;;10.83;9.73;;;;;;;8.61;89.35;97803.28;6198973;28;20706;-84
2022/05/02 00:53:13;;;;;;;8.90;8.00;;;;;;;8.58;89.96;97798.25;6203314;28;20321;-84
2022/05/02 00:56:17;;;;;;;10.47;9.47;;;;;;;8.55;89.70;97793.19;6195025;28;20242;-84
2022/05/02 00:59:21;;;;;;;10.20;9.20;;;;;;;8.51;89.50;97789.09;6195125;28;20250;-84
2022/05/02 01:02:29;;;;;;;9.10;8.20;;;;;;;8.46;89.82;97799.94;6110616;28;20226;-86
2022/05/02 01:07:08;;;;;;;9.10;8.20;;;;;;;8.38;90.07;97799.66;6211887;28;20285;-84
2022/05/02 01:08:59;;;;;;;9.87;8.70;;;;;;;8.31;90.02;97797.50;6205867;28;20328;-84
2022/05/02 01:12:01;;;;;;;10.07;9.07;;;;;;;8.27;89.89;97796.03;6193985;28;20706;-85
2022/05/02 01:15:04;;;;;;;9.43;8.53;;;;;;;8.21;89.73;97797.28;6210479;28;20357;-84
2022/05/02 01:18:06;;;;;;;10.60;9.50;;;;;;;8.19;89.92;97796.53;6202465;28;20634;-84
2022/05/02 01:21:16;;;;;;;8.63;7.83;;;;;;;8.12;89.82;97793.50;6222172;28;20586;-84
2022/05/02 01:24:18;;;;;;;11.90;9.70;;;;;;;8.05;89.87;97789.63;6211125;28;20601;-84
2022/05/02 01:27:20;;;;;;;10.60;9.50;;;;;;;8.00;89.40;97780.34;6224088;28;20206;-84
2022/05/02 01:30:22;;;;;;;9.20;8.27;;;;;;;7.96;89.89;97789.41;6216974;28;20276;-84
2022/05/02 01:33:24;;;;;;;10.27;9.23;;;;;;;7.90;89.42;97789.81;6210618;28;20718;-84
2022/05/02 01:36:26;;;;;;;9.73;7.77;;;;;;;7.87;89.52;97785.63;6193889;28;20273;-84
2022/05/02 01:39:31;;;;;;;7.90;7.20;;;;;;;7.90;89.75;97790.66;6194613;28;20765;-84
2022/05/02 01:42:33;;;;;;;10.50;9.50;;;;;;;7.90;89.62;97781.94;6194839;28;20228;-84
2022/05/02 01:45:35;;;;;;;9.60;8.70;;;;;;;7.88;89.82;97789.09;6210892;28;20219;-84
2022/05/02 01:48:38;;;;;;;8.03;7.23;;;;;;;7.87;89.41;97785.63;6188688;28;20350;-84
2022/05/02 01:51:40;;;;;;;8.33;7.53;;;;;;;7.88;89.49;97786.47;6210870;28;20314;-84
2022/05/02 01:54:42;;;;;;;9.07;8.17;;;;;;;7.86;89.57;97783.09;6212420;28;20309;-84
2022/05/02 01:57:44;;;;;;;9.07;8.17;;;;;;;7.86;89.43;97783.94;6229554;28;20308;-84
2022/05/02 02:00:46;;;;;;;8.83;6.27;;;;;;;7.85;89.10;97787.50;6195726;28;20311;-84
2022/05/02 02:03:48;;;;;;;10.63;8.80;;;;;;;7.86;89.13;97791.81;6210155;28;20256;-84
2022/05/02 02:06:51;;;;;;;9.03;8.13;;;;;;;7.87;89.44;97793.50;6210922;28;20222;-84
2022/05/02 02:09:53;;;;;;;7.80;7.00;;;;;;;7.84;89.16;97787.59;6194348;28;20230;-84
2022/05/02 02:12:55;;;;;;;10.60;8.67;;;;;;;7.78;89.76;97781.00;6210130;28;20311;-84
2022/05/02 02:15:58;;;;;;;10.70;9.00;;;;;;;7.72;89.85;97779.59;6219309;28;20294;-84
2022/05/02 02:19:00;;;;;;;9.20;8.27;;;;;;;7.68;89.40;97779.94;6192249;28;20231;-85
2022/05/02 02:22:17;;;;;;;7.70;7.00;;;;;;;7.65;89.37;97780.97;6183241;28;20230;-84
2022/05/02 02:25:19;;;;;;;8.87;8.07;;;;;;;7.65;89.48;97775.72;6207038;28;20246;-84
2022/05/02 02:28:21;;;;;;;7.50;6.80;;;;;;;7.65;89.62;97778.34;6213025;28;20238;-84
2022/05/02 02:31:23;;;;;;;8.43;7.63;;;;;;;7.63;90.06;97777.59;6199305;28;20223;-84
2022/05/02 02:34:26;;;;;;;8.70;7.90;;;;;;;7.64;89.97;97778.44;6215316;28;20241;-84
2022/05/02 02:37:27;;;;;;;8.67;7.77;;;;;;;7.65;89.74;97775.72;6231607;28;20260;-85
2022/05/02 02:40:31;;;;;;;8.73;7.83;;;;;;;7.63;89.66;97777.59;6232816;28;20258;-84
2022/05/02 02:43:33;;;;;;;7.30;6.60;;;;;;;7.59;90.21;97775.25;6246971;28;20234;-84
2022/05/02 02:46:35;;;;;;;10.10;7.60;;;;;;;7.57;89.67;97778.03;6214907;28;20321;-85
2022/05/02 02:49:37;;;;;;;8.10;7.30;;;;;;;7.53;90.15;97779.16;6215365;28;20250;-84
2022/05/02 02:52:39;;;;;;;8.17;7.20;;;;;;;7.47;90.14;97773.47;6214200;28;20224;-84
2022/05/02 02:55:41;;;;;;;7.30;6.60;;;;;;;7.37;89.87;97770.63;6214188;28;20245;-84
2022/05/02 02:58:43;;;;;;;9.30;7.57;;;;;;;7.28;90.05;97766.81;6212392;28;20245;-84
2022/05/02 03:02:05;;;;;;;7.27;6.57;;;;;;;7.19;90.16;97762.16;6174391;28;20242;-84
2022/05/02 03:08:32;;;;;;;7.00;6.40;;;;;;;6.99;89.93;97759.97;6230282;28;20255;-83
2022/05/02 03:11:34;;;;;;;6.03;5.53;;;;;;;6.91;89.97;97755.22;6197737;28;20234;-84
2022/05/02 03:14:36;;;;;;;7.00;6.40;;;;;;;6.88;90.15;97759.84;6213748;28;20695;-84
2022/05/02 03:17:38;;;;;;;6.83;6.13;;;;;;;6.86;90.50;97759.94;6213790;28;20251;-84
2022/05/02 03:20:40;;;;;;;6.80;6.17;;;;;;;6.82;90.42;97753.19;6205636;28;20239;-84
2022/05/02 03:23:42;;;;;;;7.23;6.53;;;;;;;6.83;90.05;97756.66;6214718;28;20374;-84
2022/05/02 03:26:44;;;;;;;6.87;6.23;;;;;;;6.79;90.11;97748.13;6197035;28;20244;-85
2022/05/02 03:29:46;;;;;;;11.43;6.20;;;;;;;6.70;90.55;97748.72;6198600;28;20289;-84
2022/05/02 03:32:48;;;;;;;6.17;5.57;;;;;;;6.63;90.46;97750.91;6209172;28;20239;-84
2022/05/02 03:35:50;;;;;;;6.53;5.47;;;;;;;6.56;90.66;97749.63;6205736;28;20697;-84
2022/05/02 03:38:52;;;;;;;7.17;6.47;;;;;;;6.53;90.42;97756.81;6213783;28;20265;-84
2022/05/02 03:41:54;;;;;;;7.70;6.93;;;;;;;6.46;90.36;97755.53;6212638;28;20230;-84
2022/05/02 03:44:56;;;;;;;6.33;5.73;;;;;;;6.35;90.53;97748.34;6212165;28;20242;-85
2022/05/02 03:47:59;;;;;;;6.67;6.07;;;;;;;6.29;90.78;97753.94;6205787;28;20398;-84
2022/05/02 03:51:01;;;;;;;6.97;6.27;;;;;;;6.27;90.16;97755.84;6210263;28;20237;-84
2022/05/02 03:54:03;;;;;;;6.83;6.23;;;;;;;6.23;90.45;97755.19;6197392;28;20591;-84
2022/05/02 03:57:05;;;;;;;7.57;6.87;;;;;;;6.19;90.57;97745.81;6195803;28;20302;-84
2022/05/02 04:00:08;;;;;;;7.70;6.90;;;;;;;6.15;90.30;97738.25;6213211;28;20296;-85
2022/05/02 04:03:14;;;;;;;6.70;6.00;;;;;;;6.14;90.49;97745.25;6229251;28;20728;-83
2022/05/02 04:06:16;;;;;;;6.70;6.00;;;;;;;6.14;90.00;97745.25;6227512;28;20223;-83
2022/05/02 04:09:18;;;;;;;6.93;6.23;;;;;;;6.17;90.33;97744.25;6228427;28;20258;-85
2022/05/02 04:12:20;;;;;;;8.20;7.07;;;;;;;6.21;90.07;97748.34;6211990;28;20282;-82
2022/05/02 04:15:23;;;;;;;6.13;5.53;;;;;;;6.17;90.36;97749.47;6196049;28;20233;-83
2022/05/02 04:18:25;;;;;;;6.53;5.93;;;;;;;6.14;90.41;97755.75;6211777;28;20230;-85
2022/05/02 04:21:27;;;;;;;7.33;6.63;;;;;;;6.11;89.90;97753.31;6195181;28;20262;-83
2022/05/02 04:24:33;;;;;;;7.23;6.47;;;;;;;6.03;89.72;97745.06;6212944;28;20632;-83
2022/05/02 04:27:35;;;;;;;7.10;6.40;;;;;;;6.00;89.68;97747.88;6194907;28;20302;-85
2022/05/02 04:30:37;;;;;;;7.73;6.27;;;;;;;6.01;89.88;97751.34;6213933;28;20599;-84
2022/05/02 04:33:39;;;;;;;7.43;6.73;;;;;;;6.06;90.38;97751.91;6228160;28;20232;-83
2022/05/02 04:36:42;;;;;;;8.60;7.63;;;;;;;6.10;90.27;97766.50;6212326;28;20741;-83
2022/05/02 04:39:44;;;;;;;7.57;6.87;;;;;;;6.10;89.88;97769.94;6195639;28;20216;-83
2022/05/02 04:42:46;;;;;;;6.87;6.17;;;;;;;6.16;89.70;97774.00;6186183;28;20588;-83
2022/05/02 04:45:48;;;;;;;9.77;7.13;;;;;;;6.15;89.43;97762.66;6209394;28;20236;-82
2022/05/02 04:48:50;;;;;;;9.50;7.37;;;;;;;6.16;89.72;97764.38;6211497;28;20255;-82
2022/05/02 04:51:52;;;;;;;8.50;7.47;;;;;;;6.18;89.86;97761.66;6210530;28;20594;-84
2022/05/02 04:54:54;;;;;;;8.83;8.00;;;;;;;6.20;89.68;97762.38;6229711;28;20707;-85
2022/05/02 04:57:56;;;;;;;8.87;7.97;;;;;;;6.24;90.05;97766.50;6211688;28;20251;-82
2022/05/02 05:00:58;;;;;;;9.00;8.10;;;;;;;6.30;89.49;97763.50;6212814;28;20758;-82
2022/05/02 05:04:00;;;;;;;7.53;6.77;;;;;;;6.38;90.02;97766.50;6213638;28;20599;-84
2022/05/02 05:07:02;;;;;;;8.53;7.70;;;;;;;6.46;90.04;97766.88;6212947;28;20231;-84
2022/05/02 05:10:06;;;;;;;8.53;7.63;;;;;;;6.57;89.49;97772.28;6212787;28;20250;-84
2022/05/02 05:13:15;;;;;;;7.93;7.13;;;;;;;6.66;89.61;97773.47;6213419;28;20240;-85
2022/05/02 05:16:47;;;;;;;9.30;7.30;;;;;;;6.75;89.84;97782.53;6213498;28;20324;-85
2022/05/02 05:20:17;;;;;;;8.30;7.50;;;;;;;6.86;89.70;97777.47;6186835;28;20232;-84
2022/05/02 05:23:29;;;;;;;7.40;6.70;;;;;;;6.97;89.53;97780.25;6187085;28;20238;-85
2022/05/02 05:26:46;;;;;;;6.83;6.17;;;;;;;7.10;88.92;97786.38;6169926;28;20271;-85
2022/05/02 05:29:54;;;;;;;7.90;7.00;;;;;;;7.22;89.04;97775.06;6184984;28;20371;-85
2022/05/02 05:33:14;;;;;;;8.87;7.97;;;;;;;7.24;88.74;97774.97;6222003;28;20266;-82
2022/05/02 05:36:40;;;;;;;7.70;6.87;;;;;;;7.31;88.93;97769.22;6210426;28;20231;-85
2022/05/02 05:40:02;;;;;;;10.60;8.33;;;;;;;7.49;89.32;97768.94;6210241;28;20282;-85
2022/05/02 05:43:46;;;;;;;8.67;7.27;;;;;;;7.70;89.31;97772.75;6209549;28;20229;-85
2022/05/02 05:47:28;;;;;;;8.47;7.67;;;;;;;7.91;89.12;97763.44;6226057;28;20307;-83
2022/05/02 05:50:32;;;;;;;7.40;6.70;;;;;;;8.13;88.86;97770.69;6202096;28;20254;-85
2022/05/02 05:53:34;;;;;;;9.53;7.67;;;;;;;8.32;88.46;97765.03;6196575;28;20236;-85
2022/05/02 05:57:21;;;;;;;9.27;8.10;;;;;;;8.60;88.57;97759.50;6186787;28;20322;-84
2022/05/02 06:00:29;;;;;;;8.17;7.17;;;;;;;8.84;88.05;97762.19;6195861;28;20361;-84
2022/05/02 06:03:37;;;;;;;8.73;7.83;;;;;;;9.07;88.06;97757.91;6201134;28;20707;-84
2022/05/02 06:06:40;;;;;;;7.90;7.13;;;;;;;9.13;87.67;97750.38;6198685;28;20305;-86
2022/05/02 06:09:43;;;;;;;8.80;7.83;;;;;;;9.24;87.66;97749.59;6193614;28;20318;-84
2022/05/02 06:12:46;;;;;;;7.73;7.03;;;;;;;9.37;87.70;97750.38;6194020;28;20671;-85
2022/05/02 06:19:25;;;;;;;6.60;6.00;;;;;;;9.61;88.10;97748.53;6210235;28;20524;-85
2022/05/02 06:22:28;;;;;;;7.50;6.80;;;;;;;9.72;87.62;97754.78;6193852;28;20330;-85
2022/05/02 06:25:33;;;;;;;8.87;8.07;;;;;;;9.82;87.91;97758.41;6209881;28;20703;-85
2022/05/02 06:28:43;;;;;;;6.70;6.10;;;;;;;9.92;87.51;97754.09;6209867;28;20235;-85
2022/05/02 06:31:55;;;;;;;7.03;6.33;;;;;;;10.06;87.81;97747.78;6230063;28;20607;-85
2022/05/02 06:34:57;;;;;;;6.50;5.90;;;;;;;10.21;87.11;97757.16;6185807;28;20224;-85
2022/05/02 06:38:13;;;;;;;6.97;6.37;;;;;;;10.42;87.25;97752.00;6176433;28;20232;-85
2022/05/02 06:41:43;;;;;;;6.40;5.83;;;;;;;10.54;86.46;97751.91;6198556;28;20310;-85
2022/05/02 06:44:54;;;;;;;6.50;5.90;;;;;;;10.81;86.28;97758.56;6209893;28;20255;-85
2022/05/02 06:48:14;;;;;;;11.07;7.80;;;;;;;11.10;85.40;97744.69;6201553;28;20282;-85
2022/05/02 06:51:26;;;;;;;7.10;6.43;;;;;;;11.50;84.27;97751.16;6188696;28;20332;-85
2022/05/02 06:54:47;;;;;;;6.30;5.80;;;;;;;11.94;82.94;97742.19;6193405;28;20739;-85
2022/05/02 06:58:02;;;;;;;10.03;5.80;;;;;;;12.37;81.30;97748.13;6193986;28;20240;-85
2022/05/02 07:01:29;;;;;;;5.70;5.10;;;;;;;12.80;79.57;97739.91;6232543;28;20232;-86
2022/05/02 07:04:56;;;;;;;5.37;4.87;;;;;;;13.22;78.16;97745.88;6225878;28;20236;-86
2022/05/02 07:07:59;;;;;;;5.10;4.70;;;;;;;13.50;76.85;97744.22;6218478;28;20217;-86
2022/05/02 07:11:06;;;;;;;5.10;4.70;;;;;;;13.82;76.09;97743.91;6229410;28;20216;-86
2022/05/02 07:14:15;;;;;;;5.33;4.43;;;;;;;14.12;74.80;97734.91;6198132;28;20226;-86
2022/05/02 07:17:43;;;;;;;4.47;4.07;;;;;;;14.33;72.31;97742.69;6213863;28;20284;-86
2022/05/02 07:21:15;;;;;;;4.03;3.63;;;;;;;14.60;71.95;97734.75;6194053;28;20329;-86
2022/05/02 07:24:34;;;;;;;4.80;4.40;;;;;;;14.80;70.96;97732.84;6153426;28;20267;-86
2022/05/02 07:28:34;;;;;;;4.23;3.90;;;;;;;15.02;69.00;97729.78;6206293;28;20229;-86
2022/05/02 07:31:39;;;;;;;4.97;3.80;;;;;;;15.33;68.83;97735.59;6116597;28;20229;-86
2022/05/02 07:34:43;;;;;;;4.13;3.83;;;;;;;15.60;67.47;97733.88;6116152;29;20292;-86
2022/05/02 07:37:47;;;;;;;3.83;3.53;;;;;;;15.99;66.46;97737.00;6116476;29;20405;-86
2022/05/02 07:44:13;;;;;;;4.23;3.83;;;;;;;16.59;63.81;97725.38;6127391;28;20238;-87
2022/05/02 07:47:16;;;;;;;3.67;3.37;;;;;;;16.79;63.03;97730.47;6107915;29;20690;-86
2022/05/02 07:50:19;;;;;;;3.60;3.30;;;;;;;16.94;62.17;97723.56;6121944;28;20234;-86
2022/05/02 07:53:23;;;;;;;4.27;3.87;;;;;;;17.12;61.52;97721.59;6130838;28;20239;-87
2022/05/02 07:56:29;;;;;;;3.60;3.30;;;;;;;17.27;61.11;97725.28;6114781;29;20237;-86
2022/05/02 07:59:38;;;;;;;3.97;3.67;;;;;;;17.46;60.47;97721.50;6099514;28;20254;-86
2022/05/02 08:02:41;;;;;;;4.20;3.80;;;;;;;17.72;59.65;97729.38;6193641;28;20757;-87
2022/05/02 08:05:45;;;;;;;3.70;3.40;;;;;;;18.00;58.85;97729.88;6212766;28;20607;-87
2022/05/02 08:09:15;;;;;;;4.57;3.60;;;;;;;18.24;58.00;97734.34;6204197;28;20236;-86
2022/05/02 08:12:39;;;;;;;4.70;3.90;;;;;;;18.42;55.88;97733.13;6171746;28;20688;-86
2022/05/02 08:15:50;;;;;;;5.07;4.57;;;;;;;18.70;54.68;97730.06;6201908;28;20223;-86
2022/05/02 08:19:02;;;;;;;4.90;4.27;;;;;;;18.98;53.67;97728.59;6187991;28;20227;-87
2022/05/02 08:29:23;;;;;;;3.80;3.47;;;;;;;19.69;53.97;97727.53;6229070;28;20263;-86
2022/05/02 08:32:44;;;;;;;3.77;2.80;;;;;;;19.98;53.32;97716.06;6213152;28;20232;-87
2022/05/02 08:36:03;;;;;;;3.67;3.37;;;;;;;20.42;50.70;97718.00;6179531;28;20247;-87
2022/05/02 08:39:07;;;;;;;4.50;3.87;;;;;;;20.53;50.19;97717.56;6176377;28;20311;-87
2022/05/02 08:42:44;;;;;;;3.10;2.90;;;;;;;20.75;47.20;97719.31;6194755;28;20352;-87
2022/05/02 08:46:39;;;;;;;4.00;3.60;;;;;;;20.60;45.58;97713.94;6205026;28;20236;-88
2022/05/02 08:50:10;;;;;;;3.70;3.40;;;;;;;20.68;47.63;97713.00;6212073;28;20224;-86
2022/05/02 08:54:04;;;;;;;5.00;3.63;;;;;;;20.67;43.60;97713.19;6189278;28;20224;-87
2022/05/02 08:57:41;;;;;;;3.87;3.50;;;;;;;21.06;43.84;97708.34;6187410;28;20225;-86
2022/05/02 09:01:14;;;;;;;3.40;3.10;;;;;;;21.61;41.29;97709.59;6203848;28;20225;-86
2022/05/02 09:04:38;;;;;;;3.37;3.07;;;;;;;21.94;41.25;97707.19;6187824;28;20233;-86
2022/05/02 09:08:08;;;;;;;3.20;2.90;;;;;;;21.78;37.76;97702.09;6213591;28;20232;-87
2022/05/02 09:11:10;;;;;;;3.83;3.53;;;;;;;21.57;40.98;97702.91;6196813;28;20345;-86
2022/05/02 09:14:37;;;;;;;4.30;3.47;;;;;;;21.41;39.63;97701.31;6197493;28;20319;-87
2022/05/02 09:18:17;;;;;;;4.07;3.17;;;;;;;21.29;39.25;97692.09;6188823;28;20926;-86
2022/05/02 09:21:40;;;;;;;3.20;2.90;;;;;;;21.54;41.77;97703.31;6188697;28;20315;-87
2022/05/02 09:24:45;;;;;;;5.27;3.87;;;;;;;21.66;37.71;97699.91;6205378;28;20229;-86
2022/05/02 09:28:21;;;;;;;4.47;3.90;;;;;;;20.93;38.09;97692.91;6211159;28;20254;-86
2022/05/02 09:31:57;;;;;;;5.10;2.60;;;;;;;21.93;37.49;97703.69;6209831;28;20707;-86
2022/05/02 09:35:04;;;;;;;5.30;3.83;;;;;;;21.68;37.42;97702.41;6202497;28;20243;-86
2022/05/02 09:38:29;;;;;;;4.33;3.73;;;;;;;22.38;36.93;97693.47;6226939;28;20314;-86
2022/05/02 09:41:59;;;;;;;3.23;2.87;;;;;;;23.13;40.33;97685.41;6193949;28;20239;-86
2022/05/02 09:52:14;;;;;;;4.73;4.23;;;;;;;24.18;33.94;97689.28;6202073;28;20244;-86
2022/05/02 09:59:00;;;;;;;7.03;4.40;;;;;;;22.93;33.61;97680.97;6227509;28;20279;-86
2022/05/02 10:02:18;;;;;;;5.20;4.40;;;;;;;22.69;34.34;97679.59;6227640;28;20232;-86
2022/05/02 10:05:36;;;;;;;4.93;4.20;;;;;;;23.61;34.89;97673.72;6211347;28;20228;-87
2022/05/02 10:08:47;;;;;;;3.63;3.33;;;;;;;24.47;34.13;97663.72;6209374;28;20317;-86
2022/05/02 10:12:02;;;;;;;4.30;3.77;;;;;;;25.19;32.58;97663.47;6211481;28;20300;-86
2022/05/02 10:15:29;;;;;;;4.30;3.87;;;;;;;25.17;32.31;97659.31;6209293;28;20247;-86
2022/05/02 10:18:36;;;;;;;5.23;3.90;;;;;;;25.16;30.07;97654.97;6185906;28;20803;-86
2022/05/02 10:21:56;;;;;;;4.37;3.50;;;;;;;25.32;32.38;97657.19;6198825;28;20620;-86
2022/05/02 10:25:29;;;;;;;6.73;4.47;;;;;;;24.52;30.00;97658.53;6209891;28;20239;-86
2022/05/02 10:28:53;;;;;;;4.60;4.20;;;;;;;23.12;31.89;97655.97;6208994;28;20231;-86
2022/05/02 10:32:16;;;;;;;6.60;4.50;;;;;;;23.74;33.55;97654.88;6209923;28;20236;-86
2022/05/02 10:35:21;;;;;;;3.67;3.33;;;;;;;24.51;32.07;97646.91;6227847;28;20691;-86
2022/05/02 10:38:30;;;;;;;3.67;3.37;;;;;;;25.33;33.22;97643.47;6209430;28;20620;-86
2022/05/02 10:41:46;;;;;;;6.77;4.53;;;;;;;24.87;30.14;97638.25;6194211;28;20236;-86
2022/05/02 10:44:56;;;;;;;4.47;4.13;;;;;;;23.87;30.51;97644.06;6214211;28;20755;-86
2022/05/02 10:48:11;;;;;;;4.20;3.27;;;;;;;23.75;32.23;97630.41;6215102;28;20228;-86
2022/05/02 10:51:46;;;;;;;3.90;3.57;;;;;;;24.14;32.47;97634.09;6197374;28;20655;-86
2022/05/02 10:55:05;;;;;;;2.90;2.60;;;;;;;25.17;31.47;97632.31;6215025;28;20224;-86
2022/05/02 10:58:11;;;;;;;3.60;3.30;;;;;;;25.95;30.35;97627.44;6214419;28;20231;-86
2022/05/02 11:01:53;;;;;;;4.20;3.25;;;;;;;25.92;29.55;97625.97;6213953;28;20370;-86
2022/05/02 11:05:05;;;;;;;5.10;3.35;;;;;;;25.73;29.69;97624.28;6192010;28;20323;-86
2022/05/02 11:08:11;;;;;;;3.88;2.90;;;;;;;25.94;29.42;97620.34;6213922;28;20718;-86
2022/05/02 11:11:46;;;;;;;5.03;3.20;;;;;;;25.97;29.93;97607.19;6214161;28;20326;-87
2022/05/02 11:14:58;;;;;;;4.85;3.83;;;;;;;25.77;30.04;97619.25;6229484;28;20240;-87
2022/05/02 11:18:09;;;;;;;3.67;3.25;;;;;;;25.77;28.30;97621.94;6206048;28;20244;-86
2022/05/02 11:21:39;;;;;;;4.03;3.33;;;;;;;25.89;28.94;97609.38;6208983;28;20634;-86
2022/05/02 11:25:00;;;;;;;2.88;2.63;;;;;;;26.58;29.18;97597.41;6188395;28;20220;-86
2022/05/02 11:28:21;;;;;;;3.88;3.40;;;;;;;27.14;28.78;97599.84;6208578;28;20605;-86
2022/05/02 11:31:36;;;;;;;4.30;3.83;;;;;;;27.08;27.30;97603.47;6199230;28;20297;-86
2022/05/02 11:34:54;;;;;;;4.57;3.00;;;;;;;26.48;29.01;97591.72;6205671;28;20251;-86
2022/05/02 11:38:21;;;;;;;6.70;2.70;;;;;;;27.07;28.80;97597.22;6204715;28;20540;-87
2022/05/02 11:41:28;;;;;;;3.00;2.70;;;;;;;27.20;28.18;97598.91;6213329;28;20365;-87
2022/05/02 11:44:34;;;;;;;5.85;3.40;;;;;;;26.99;26.58;97591.31;6197311;28;20232;-86
2022/05/02 11:47:57;;;;;;;4.40;3.83;;;;;;;27.18;27.01;97593.72;6204501;28;20363;-86
2022/05/02 11:51:03;;;;;;;3.10;2.90;;;;;;;27.94;27.10;97589.44;6190697;28;20228;-86
2022/05/02 11:54:17;;;;;;;3.30;3.05;;;;;;;27.88;26.72;97591.19;6211229;28;20231;-86
2022/05/02 11:57:55;;;;;;;4.80;3.38;;;;;;;27.95;27.38;97582.91;6228595;28;20208;-87
2022/05/02 12:01:09;;;;;;;4.03;3.63;;;;;;;27.67;25.79;97588.19;6209970;28;20231;-84
2022/05/02 12:04:17;;;;;;;4.20;3.72;;;;;;;27.56;26.40;97581.72;6228871;28;20235;-84
2022/05/02 12:07:29;;;;;;;3.67;3.22;;;;;;;27.11;26.78;97573.22;6196228;28;20232;-84
2022/05/02 12:10:35;;;;;;;4.13;3.47;;;;;;;26.93;27.07;97568.69;6212761;28;20655;-84
2022/05/02 12:13:44;;;;;;;3.70;2.70;;;;;;;26.73;28.41;97574.34;6227969;28;20277;-85
2022/05/02 12:17:10;;;;;;;5.80;2.72;;;;;;;27.10;27.03;97572.38;6229880;28;20235;-84
2022/05/02 12:20:29;;;;;;;3.45;3.00;;;;;;;26.57;27.69;97571.41;6204679;28;20225;-85
2022/05/02 12:23:33;;;;;;;3.55;2.80;;;;;;;26.75;28.40;97568.69;6201904;28;20399;-87
2022/05/02 12:26:51;;;;;;;3.85;2.80;;;;;;;26.98;27.12;97559.84;6207424;28;20240;-85
2022/05/02 12:30:02;;;;;;;2.95;2.67;;;;;;;26.50;25.53;97567.97;6213883;28;20235;-85
2022/05/02 12:33:05;;;;;;;2.55;2.38;;;;;;;25.67;26.54;97569.19;6219207;28;20235;-85
2022/05/02 12:36:15;;;;;;;3.63;2.25;;;;;;;24.52;28.14;97551.44;6195236;28;20211;-84
2022/05/02 12:39:27;;;;;;;4.07;2.25;;;;;;;24.67;27.58;97558.41;6196190;28;20219;-84
2022/05/02 12:42:47;;;;;;;3.63;2.75;;;;;;;25.69;27.67;97556.28;6211204;28;20243;-84
2022/05/02 12:45:50;;;;;;;3.15;2.88;;;;;;;26.53;27.42;97549.38;6195413;28;20293;-84
2022/05/02 12:48:56;;;;;;;3.30;2.97;;;;;;;27.01;26.02;97543.97;6212393;28;20282;-84
2022/05/02 12:51:58;;;;;;;3.50;3.20;;;;;;;26.82;26.99;97536.91;6227921;28;20234;-84
2022/05/02 12:55:00;;;;;;;3.90;3.53;;;;;;;27.20;27.50;97536.59;6195592;28;20239;-84
2022/05/02 13:01:24;;;;;;;3.75;3.45;;;;;;;25.84;29.32;97539.75;6211467;28;20232;-85
2022/05/02 13:04:28;;;;;;;3.33;2.72;;;;;;;25.66;29.58;97527.00;6202518;28;20316;-85
2022/05/02 13:07:41;;;;;;;3.28;2.55;;;;;;;25.67;30.57;97530.53;6193348;28;20228;-84
2022/05/02 13:10:44;;;;;;;2.53;2.30;;;;;;;25.49;30.81;97525.88;6186876;28;20236;-84
2022/05/02 13:13:49;;;;;;;4.40;2.35;;;;;;;25.01;31.04;97522.94;6210323;28;20242;-85
2022/05/02 13:16:52;;;;;;;3.42;3.08;;;;;;;24.54;31.59;97522.38;6228790;28;20265;-84
2022/05/02 13:19:55;;;;;;;3.67;2.75;;;;;;;24.71;30.96;97522.69;6211167;28;20401;-84
2022/05/02 13:23:13;;;;;;;3.03;2.63;;;;;;;25.61;29.94;97499.81;6210443;28;20285;-84
2022/05/02 13:26:36;;;;;;;4.22;2.30;;;;;;;26.97;27.06;97502.13;6226534;28;20290;-84
2022/05/02 13:29:57;;;;;;;2.78;2.53;;;;;;;27.79;26.45;97489.53;6211068;28;20745;-84
2022/05/02 13:33:06;;;;;;;2.50;2.30;;;;;;;28.84;25.37;97489.28;6224016;28;20239;-84
2022/05/02 13:36:08;;;;;;;1.80;1.70;;;;;;;29.66;24.58;97494.19;6202186;28;20370;-84
2022/05/02 13:39:29;;;;;;;2.53;2.13;;;;;;;28.92;22.40;97494.31;6202877;28;20224;-84
2022/05/02 13:43:01;;;;;;;2.10;1.70;;;;;;;29.54;21.14;97493.47;6221572;28;20224;-84
2022/05/02 13:46:32;;;;;;;2.38;1.70;;;;;;;27.91;22.38;97479.47;6210564;28;20228;-84
2022/05/02 13:50:12;;;;;;;2.95;1.65;;;;;;;27.63;23.44;97473.97;6185420;28;20322;-84
2022/05/02 13:54:08;;;;;;;1.55;1.45;;;;;;;26.93;26.22;97475.75;6224457;28;20527;-84
2022/05/02 13:57:42;;;;;;;2.03;1.80;;;;;;;26.99;23.43;97469.41;6114623;28;20246;-84
2022/05/02 14:01:31;;;;;;;2.00;1.73;;;;;;;26.38;24.21;97470.47;6226095;28;20262;-84
2022/05/02 14:04:41;;;;;;;2.83;1.52;;;;;;;28.27;22.88;97466.69;6225768;28;20228;-84
2022/05/02 14:07:47;;;;;;;1.80;1.60;;;;;;;31.10;20.16;97461.94;6210157;28;20770;-85
2022/05/02 14:10:58;;;;;;;2.42;1.60;;;;;;;29.79;20.52;97455.75;6210304;28;20317;-84
2022/05/02 14:14:09;;;;;;;1.85;1.45;;;;;;;27.70;22.46;97461.09;6212489;28;20730;-84
2022/05/02 14:17:33;;;;;;;1.50;1.40;;;;;;;29.29;18.48;97453.88;6202873;28;20306;-86
2022/05/02 14:20:36;;;;;;;1.52;1.00;;;;;;;31.57;16.63;97463.13;6212527;28;20858;-84
2022/05/02 14:24:04;;;;;;;1.98;1.20;;;;;;;32.82;17.35;97466.78;6216227;28;20232;-84
2022/05/02 14:27:06;;;;;;;1.45;1.35;;;;;;;33.84;15.15;97456.69;6203250;28;20871;-85
2022/05/02 14:30:09;;;;;;;1.85;1.70;;;;;;;31.68;17.37;97473.06;6222104;28;20729;-84
2022/05/02 14:33:17;;;;;;;1.85;1.33;;;;;;;28.41;21.03;97465.34;6233809;28;20744;-84
2022/05/02 14:36:20;;;;;;;2.72;1.55;;;;;;;27.08;23.46;97466.13;6214127;28;20223;-84
2022/05/02 14:39:23;;;;;;;2.03;1.67;;;;;;;26.48;24.40;97459.06;6201821;28;20306;-84
2022/05/02 14:42:26;;;;;;;1.52;1.40;;;;;;;26.44;24.41;97458.72;6245330;28;20715;-84
2022/05/02 14:45:30;;;;;;;1.40;1.30;;;;;;;25.60;24.16;97452.22;6216665;28;20231;-84
2022/05/02 14:48:34;;;;;;;2.33;1.40;;;;;;;24.79;25.31;97454.94;6191434;28;20315;-83
2022/05/02 14:51:39;;;;;;;2.15;1.33;;;;;;;24.78;26.37;97455.97;6207195;28;20359;-84
2022/05/02 14:54:42;;;;;;;2.65;1.40;;;;;;;25.08;26.04;97452.66;6226709;28;20236;-85
2022/05/02 14:57:51;;;;;;;1.40;1.30;;;;;;;24.85;29.57;97450.53;6231099;28;20239;-84
2022/05/02 15:00:58;;;;;;;1.50;1.40;;;;;;;24.46;28.59;97455.13;6215481;28;20782;-84
2022/05/02 15:04:05;;;;;;;1.20;1.20;;;;;;;24.59;28.48;97455.06;6214208;28;20307;-84
2022/05/02 15:07:13;;;;;;;1.63;1.20;;;;;;;26.97;27.64;97442.53;6230129;28;20246;-84
2022/05/02 15:10:53;;;;;;;2.20;1.43;;;;;;;28.05;21.89;97450.19;6213745;28;20318;-84
2022/05/02 15:14:24;;;;;;;3.60;1.60;;;;;;;26.91;22.94;97435.31;6213444;28;20274;-84
2022/05/02 15:17:26;;;;;;;1.33;1.23;;;;;;;25.63;25.86;97435.56;6180112;28;20294;-85
2022/05/02 15:20:36;;;;;;;2.40;1.50;;;;;;;24.83;27.04;97441.84;6213402;28;20723;-84
2022/05/02 15:23:38;;;;;;;2.30;1.40;;;;;;;24.81;27.24;97439.34;6214998;28;20239;-84
2022/05/02 15:26:50;;;;;;;1.38;1.27;;;;;;;25.55;27.42;97443.09;6212546;28;20238;-85
2022/05/02 15:37:21;;;;;;;3.03;1.27;;;;;;;23.35;35.13;97429.38;6199621;28;20241;-84
2022/05/02 15:40:45;;;;;;;3.53;1.40;;;;;;;23.01;37.63;97425.88;6188895;28;20319;-84
2022/05/02 15:43:53;;;;;;;1.40;1.10;;;;;;;22.80;36.31;97437.69;6206226;28;20233;-85